Main page
METAR-TAF:

METAR-TAF

Airports :

Mécheria Airport

Mécheria, Algeria

latitude: 34-56N, longitude: 000-26W, elevation: 1149 m

Current weather observation

The report was made 1 hour and 5 minutes ago, at 05:00 UTC
Wind 12 kt from the Southwest
Temperature 11°C
Humidity 47%
Pressure 1014 hPa
Visibility 10 km or more
Few clouds at a height of 3000 ft
Scattered clouds at a height of 10000 ft

METAR: DAAY 080500Z 22012KT 9999 FEW030 SCT100 11/00 Q1014

Time: 07:05 (06:05 UTC)

Forecast

The report was made 4 hours and 5 minutes ago, at 02:00 UTC
Forecast valid from 08 at 03 UTC to 08 at 12 UTC
Wind 10 kt from the Southwest
Visibility 10 km or more
Few clouds at a height of 3000 ft
Scattered clouds at a height of 10000 ft

TAF: DAAY 080200Z 0803/0812 22010KT 9999 FEW030 SCT100

Weather observations and forecasts of more than 4000 airports (METAR and TAF reports).

The available stations are represented by yellow and red dots on the map.

Hover mouse over dot to see the name of the station.

Then click to see weather observations and forecasts.

To change the map : click on the green buttons with a black cross to zoom in, on the green button with a dash to zoom out, or on the green arrows for adjacent maps.


METAR-TAF: